Time;durP1;ratioP1;P1;durP2;ratioP2;P2;SDS_P1;SDS_P2;PMS_P1;PMS_P2;Temp;Humidity;BMP_temperature;BMP_pressure;BME280_temperature;BME280_humidity;BME280_pressure;Samples;Min_cycle;Max_cycle;Signal;HPM_P1;HPM_P2
2022/03/29 00:01:25;;;;;;;13.60;11.00;;;10.60;64.80;;;;;;6002621;23;20551;-86
2022/03/29 00:03:52;;;;;;;13.57;10.90;;;10.60;64.80;;;;;;5996824;23;20206;-85
2022/03/29 00:06:20;;;;;;;12.90;11.45;;;10.60;65.00;;;;;;5995432;23;20203;-85
2022/03/29 00:08:47;;;;;;;13.70;10.15;;;10.60;64.90;;;;;;6000408;23;20226;-85
2022/03/29 00:11:15;;;;;;;11.88;10.25;;;10.60;64.80;;;;;;6000949;23;20218;-84
2022/03/29 00:13:42;;;;;;;15.40;11.27;;;10.60;64.90;;;;;;6005081;23;20214;-85
2022/03/29 00:16:09;;;;;;;15.90;11.35;;;10.60;65.10;;;;;;6005064;23;20228;-85
2022/03/29 00:18:36;;;;;;;16.42;10.50;;;10.60;65.20;;;;;;6001379;23;20289;-84
2022/03/29 00:21:02;;;;;;;14.50;12.02;;;10.60;65.10;;;;;;6002951;23;20190;-85
2022/03/29 00:23:31;;;;;;;14.35;11.20;;;10.60;65.40;;;;;;6000810;23;20577;-85
2022/03/29 00:25:58;;;;;;;13.05;10.70;;;10.60;65.60;;;;;;6004316;23;20652;-85
2022/03/29 00:28:25;;;;;;;12.13;10.82;;;10.50;65.50;;;;;;6003154;23;20190;-85
2022/03/29 00:30:52;;;;;;;13.65;11.25;;;10.50;65.90;;;;;;6005740;23;20645;-85
2022/03/29 00:33:19;;;;;;;13.20;11.60;;;10.50;65.90;;;;;;6000835;23;20221;-85
2022/03/29 00:35:45;;;;;;;11.68;10.38;;;10.50;66.10;;;;;;6021606;23;20202;-85
2022/03/29 00:38:14;;;;;;;13.23;10.95;;;10.50;66.20;;;;;;6005296;23;20276;-85
2022/03/29 00:40:42;;;;;;;15.10;11.68;;;10.50;66.30;;;;;;6000300;23;20660;-85
2022/03/29 00:43:10;;;;;;;12.57;11.13;;;10.50;67.20;;;;;;6001438;23;20234;-85
2022/03/29 00:45:37;;;;;;;12.90;11.35;;;10.50;66.70;;;;;;6024051;23;20209;-85
2022/03/29 00:48:05;;;;;;;15.98;12.13;;;10.40;66.90;;;;;;6003951;23;20193;-85
2022/03/29 00:50:32;;;;;;;14.57;11.35;;;10.40;67.10;;;;;;6000945;23;20244;-85
2022/03/29 00:52:59;;;;;;;12.98;10.90;;;10.40;67.40;;;;;;6013608;23;20275;-85
2022/03/29 00:55:27;;;;;;;12.00;10.52;;;10.40;67.60;;;;;;6021469;23;20272;-85
2022/03/29 00:57:55;;;;;;;12.85;11.48;;;10.30;67.80;;;;;;6003475;23;20217;-85
2022/03/29 01:00:23;;;;;;;14.27;10.80;;;10.30;68.10;;;;;;6004522;23;20194;-85
2022/03/29 01:02:50;;;;;;;14.00;10.55;;;10.20;68.30;;;;;;5997517;23;20221;-85
2022/03/29 01:05:17;;;;;;;13.20;11.30;;;10.20;68.50;;;;;;6004645;23;20201;-85
2022/03/29 01:07:44;;;;;;;12.55;10.73;;;10.20;68.90;;;;;;5999848;23;20218;-85
2022/03/29 01:10:12;;;;;;;15.40;12.43;;;10.20;69.10;;;;;;6003430;23;20574;-85
2022/03/29 01:12:39;;;;;;;14.25;12.30;;;10.10;69.30;;;;;;6003354;23;20248;-85
2022/03/29 01:15:10;;;;;;;14.20;11.70;;;10.10;69.70;;;;;;6005207;23;20275;-84
2022/03/29 01:17:39;;;;;;;13.15;11.75;;;10.00;70.10;;;;;;6003525;23;20236;-85
2022/03/29 01:20:12;;;;;;;12.15;11.05;;;10.00;70.60;;;;;;6002952;23;20325;-85
2022/03/29 01:22:42;;;;;;;15.13;11.23;;;9.90;72.20;;;;;;6004853;23;20228;-85
2022/03/29 01:25:13;;;;;;;12.55;11.25;;;9.90;72.70;;;;;;6002635;23;20192;-85
2022/03/29 01:27:40;;;;;;;13.52;11.35;;;9.80;73.20;;;;;;6004733;23;20241;-85
2022/03/29 01:30:08;;;;;;;14.00;11.52;;;9.70;73.70;;;;;;5997819;23;20224;-85
2022/03/29 01:32:36;;;;;;;13.20;11.80;;;9.70;74.20;;;;;;5981893;23;21262;-85
2022/03/29 01:35:06;;;;;;;12.63;11.20;;;9.70;74.40;;;;;;6016878;23;20272;-84
2022/03/29 01:37:34;;;;;;;13.73;11.82;;;9.70;74.70;;;;;;6006469;23;20193;-85
2022/03/29 01:40:08;;;;;;;12.80;11.50;;;9.70;74.80;;;;;;5996964;23;20240;-85
2022/03/29 01:42:35;;;;;;;16.73;11.95;;;9.70;75.20;;;;;;6003810;23;20251;-86
2022/03/29 01:45:03;;;;;;;14.00;11.50;;;9.70;75.50;;;;;;6017588;23;20302;-85
2022/03/29 01:47:29;;;;;;;15.82;12.75;;;9.70;76.20;;;;;;5999221;23;20556;-85
2022/03/29 01:49:56;;;;;;;13.15;11.30;;;9.60;76.10;;;;;;6002980;23;20238;-85
2022/03/29 01:52:23;;;;;;;13.02;11.35;;;9.60;76.40;;;;;;6007283;23;20212;-85
2022/03/29 01:54:50;;;;;;;17.10;12.32;;;9.60;76.90;;;;;;6012690;23;20282;-85
2022/03/29 01:57:19;;;;;;;16.40;12.38;;;9.60;77.40;;;;;;6003336;23;20203;-85
2022/03/29 02:02:30;;;;;;;15.38;11.73;;;9.40;78.40;;;;;;5998905;23;20220;-85
2022/03/29 02:04:58;;;;;;;12.98;11.68;;;9.40;79.00;;;;;;6014058;23;20184;-84
2022/03/29 02:07:25;;;;;;;14.25;11.77;;;9.40;79.40;;;;;;6031325;23;20201;-84
2022/03/29 02:09:52;;;;;;;13.23;11.50;;;9.30;79.60;;;;;;6002407;23;20736;-85
2022/03/29 02:12:20;;;;;;;13.90;12.50;;;9.30;80.00;;;;;;6002838;23;20267;-85
2022/03/29 02:14:47;;;;;;;15.55;12.05;;;9.30;80.00;;;;;;6004183;23;20199;-85
2022/03/29 02:17:14;;;;;;;12.85;11.55;;;9.30;80.30;;;;;;6001157;23;20201;-85
2022/03/29 02:19:41;;;;;;;14.07;12.23;;;9.40;80.40;;;;;;6018344;23;20610;-85
2022/03/29 02:22:08;;;;;;;12.10;10.88;;;9.40;80.90;;;;;;6005329;23;20212;-85
2022/03/29 02:24:35;;;;;;;14.30;11.95;;;9.40;80.20;;;;;;6002659;23;20195;-85
2022/03/29 02:27:02;;;;;;;13.07;11.65;;;9.40;80.20;;;;;;6004745;23;20196;-84
2022/03/29 02:29:30;;;;;;;14.00;10.68;;;9.40;80.10;;;;;;6029324;23;20284;-84
2022/03/29 02:31:57;;;;;;;15.35;12.30;;;9.40;80.00;;;;;;6003201;23;20217;-85
2022/03/29 02:34:24;;;;;;;11.63;10.40;;;9.40;80.10;;;;;;6009055;23;20353;-85
2022/03/29 02:36:51;;;;;;;13.77;11.43;;;9.40;80.00;;;;;;6002879;23;20229;-85
2022/03/29 02:39:18;;;;;;;13.25;10.80;;;9.40;80.10;;;;;;5986220;23;20229;-85
2022/03/29 02:41:45;;;;;;;12.93;11.23;;;9.50;80.20;;;;;;6016984;23;20604;-85
2022/03/29 02:44:12;;;;;;;12.27;10.85;;;9.40;80.30;;;;;;6009334;23;20231;-85
2022/03/29 02:46:40;;;;;;;13.00;11.40;;;9.40;80.50;;;;;;6019822;23;20195;-86
2022/03/29 02:49:08;;;;;;;15.15;11.82;;;9.40;81.00;;;;;;6013744;23;20195;-85
2022/03/29 02:51:34;;;;;;;14.02;11.50;;;9.30;81.40;;;;;;5999660;23;20213;-85
2022/03/29 02:54:02;;;;;;;13.45;11.27;;;9.30;81.80;;;;;;6007041;23;20271;-84
2022/03/29 02:56:29;;;;;;;13.40;11.68;;;9.20;82.30;;;;;;6000798;23;20274;-84
2022/03/29 02:58:56;;;;;;;14.20;11.02;;;9.20;82.50;;;;;;6004283;23;20308;-85
2022/03/29 03:01:23;;;;;;;12.98;11.65;;;9.20;83.40;;;;;;6000785;23;20212;-86
2022/03/29 03:03:52;;;;;;;14.80;11.60;;;9.30;83.60;;;;;;6000084;23;20657;-84
2022/03/29 03:06:19;;;;;;;11.80;10.55;;;9.30;83.20;;;;;;6002562;23;20197;-84
2022/03/29 03:08:46;;;;;;;12.20;11.00;;;9.40;81.80;;;;;;6000699;23;20198;-85
2022/03/29 03:11:13;;;;;;;12.60;11.32;;;9.40;81.30;;;;;;6002591;23;20224;-85
2022/03/29 03:13:40;;;;;;;11.85;10.52;;;9.50;82.20;;;;;;6002448;23;20193;-84
2022/03/29 03:16:07;;;;;;;13.82;11.57;;;9.60;82.10;;;;;;6001192;23;20557;-84
2022/03/29 03:18:34;;;;;;;13.60;10.90;;;9.60;80.30;;;;;;6001219;23;20229;-84
2022/03/29 03:21:03;;;;;;;12.02;10.82;;;9.70;79.70;;;;;;6003516;23;20562;-84
2022/03/29 03:23:30;;;;;;;12.40;11.05;;;9.80;79.50;;;;;;6003180;23;20645;-84
2022/03/29 03:25:57;;;;;;;12.73;11.02;;;9.90;78.90;;;;;;6008146;23;20240;-84
2022/03/29 03:28:24;;;;;;;11.95;10.75;;;9.90;78.60;;;;;;6003496;23;20277;-85
2022/03/29 03:30:53;;;;;;;12.38;11.18;;;10.00;77.40;;;;;;6004689;23;20235;-84
2022/03/29 03:33:20;;;;;;;14.57;11.55;;;10.00;77.40;;;;;;6001811;23;20217;-84
2022/03/29 03:35:48;;;;;;;12.40;10.82;;;9.90;78.50;;;;;;6004714;23;20636;-84
2022/03/29 03:38:16;;;;;;;12.32;10.63;;;10.00;77.50;;;;;;6003283;23;20247;-84
2022/03/29 03:40:43;;;;;;;12.57;11.27;;;9.90;78.60;;;;;;6004994;23;20225;-84
2022/03/29 03:43:10;;;;;;;11.43;10.23;;;9.90;78.50;;;;;;6001311;23;20217;-84
2022/03/29 03:45:37;;;;;;;12.77;11.13;;;9.90;78.60;;;;;;6002589;23;20547;-84
2022/03/29 03:48:05;;;;;;;12.93;11.48;;;9.80;78.70;;;;;;6003029;23;20193;-83
2022/03/29 03:50:33;;;;;;;13.00;11.60;;;9.90;78.90;;;;;;6004130;23;20225;-84
2022/03/29 03:53:00;;;;;;;12.55;10.60;;;9.80;79.00;;;;;;6001587;23;20224;-84
2022/03/29 03:55:28;;;;;;;16.88;11.48;;;9.80;79.30;;;;;;6012270;23;20284;-84
2022/03/29 03:57:55;;;;;;;16.25;12.05;;;9.80;79.50;;;;;;6004513;23;20244;-84
2022/03/29 04:00:24;;;;;;;13.48;11.52;;;9.80;79.70;;;;;;6001650;23;20299;-84
2022/03/29 04:02:52;;;;;;;13.30;10.95;;;9.80;79.80;;;;;;6002653;23;20256;-84
2022/03/29 04:05:21;;;;;;;13.52;11.50;;;9.70;80.20;;;;;;5999599;23;20205;-84
2022/03/29 04:07:48;;;;;;;13.63;10.77;;;9.70;80.20;;;;;;5999145;23;20550;-84
2022/03/29 04:10:15;;;;;;;12.80;11.50;;;9.70;80.70;;;;;;6001859;23;20627;-84
2022/03/29 04:12:44;;;;;;;12.75;11.38;;;9.60;80.30;;;;;;6005498;23;20885;-84
2022/03/29 04:15:12;;;;;;;13.63;12.07;;;9.70;80.40;;;;;;6012719;23;20288;-83
2022/03/29 04:17:39;;;;;;;12.57;11.27;;;9.60;80.60;;;;;;5999317;23;20196;-84
2022/03/29 04:20:07;;;;;;;14.60;12.00;;;9.60;80.50;;;;;;6001990;23;20204;-84
2022/03/29 04:22:35;;;;;;;12.38;11.13;;;9.60;80.70;;;;;;6004947;23;20330;-84
2022/03/29 04:25:03;;;;;;;13.00;11.43;;;9.60;80.60;;;;;;6007978;23;20195;-84
2022/03/29 04:27:30;;;;;;;13.38;11.93;;;9.60;80.70;;;;;;6002747;23;20203;-84
2022/03/29 04:29:58;;;;;;;12.25;10.90;;;9.60;81.10;;;;;;6001818;23;20304;-84
2022/03/29 04:32:25;;;;;;;12.50;10.80;;;9.50;81.40;;;;;;6007932;23;20279;-84
2022/03/29 04:34:52;;;;;;;12.57;11.38;;;9.50;81.80;;;;;;5996647;23;20324;-81
2022/03/29 04:37:20;;;;;;;13.27;11.88;;;9.40;82.30;;;;;;5996858;23;20649;-85
2022/03/29 04:39:47;;;;;;;12.88;11.00;;;9.30;82.80;;;;;;6001186;23;20193;-85
2022/03/29 04:42:14;;;;;;;13.52;12.10;;;9.30;83.40;;;;;;5996820;23;20301;-85
2022/03/29 04:44:41;;;;;;;13.00;11.60;;;9.20;83.80;;;;;;6007533;23;20196;-84
2022/03/29 04:47:10;;;;;;;14.07;11.95;;;9.20;84.20;;;;;;6009850;23;20219;-82
2022/03/29 04:49:37;;;;;;;12.88;11.57;;;9.10;84.50;;;;;;6002693;23;20191;-83
2022/03/29 04:52:06;;;;;;;12.45;11.18;;;9.10;84.80;;;;;;6001800;23;20216;-82
2022/03/29 04:54:33;;;;;;;13.18;11.77;;;9.00;85.00;;;;;;6006279;23;20211;-83
2022/03/29 04:57:00;;;;;;;13.07;11.80;;;9.00;85.30;;;;;;6013347;23;20192;-82
2022/03/29 04:59:27;;;;;;;12.57;11.18;;;9.00;85.50;;;;;;6021861;23;20196;-82
2022/03/29 05:01:54;;;;;;;13.82;11.30;;;9.00;85.70;;;;;;6026825;23;20239;-85
2022/03/29 05:04:22;;;;;;;13.02;11.52;;;9.10;85.60;;;;;;6004798;23;20205;-84
2022/03/29 05:06:49;;;;;;;12.80;11.50;;;9.10;85.60;;;;;;5985733;23;20193;-81
2022/03/29 05:09:16;;;;;;;16.65;11.27;;;9.10;85.60;;;;;;6000425;23;20818;-82
2022/03/29 05:11:43;;;;;;;13.18;11.27;;;9.10;85.50;;;;;;5985603;23;20325;-82
2022/03/29 05:14:10;;;;;;;13.75;12.35;;;9.10;85.70;;;;;;5987380;23;20186;-82
2022/03/29 05:16:37;;;;;;;13.60;11.65;;;9.10;85.90;;;;;;5999912;23;20271;-84
2022/03/29 05:19:04;;;;;;;15.05;12.02;;;9.00;86.40;;;;;;5997022;23;20183;-82
2022/03/29 05:21:32;;;;;;;14.20;11.73;;;9.00;87.00;;;;;;5998186;23;20216;-81
2022/03/29 05:23:59;;;;;;;14.57;11.70;;;8.90;87.20;;;;;;5994198;23;20183;-81
2022/03/29 05:26:26;;;;;;;17.83;12.18;;;8.90;87.50;;;;;;5994140;23;20203;-80
2022/03/29 05:28:53;;;;;;;15.55;11.60;;;8.80;88.20;;;;;;5998652;23;20238;-81
2022/03/29 05:31:20;;;;;;;15.48;12.15;;;8.80;89.00;;;;;;5994480;23;20223;-83
2022/03/29 05:33:47;;;;;;;14.23;12.73;;;8.70;90.10;;;;;;6002220;23;20182;-81
2022/03/29 05:36:15;;;;;;;13.27;11.88;;;8.70;90.10;;;;;;5997883;23;20270;-82
2022/03/29 05:38:49;;;;;;;14.02;11.35;;;8.60;90.40;;;;;;5985362;23;20229;-82
2022/03/29 05:41:19;;;;;;;12.68;11.35;;;8.60;90.70;;;;;;5992058;23;20275;-83
2022/03/29 05:43:47;;;;;;;13.00;11.18;;;8.50;91.00;;;;;;5993967;23;21023;-84
2022/03/29 05:48:59;;;;;;;13.40;11.38;;;8.50;91.20;;;;;;5998881;23;20925;-84
2022/03/29 05:51:28;;;;;;;12.20;10.50;;;8.50;91.10;;;;;;6000784;23;20224;-84
2022/03/29 05:54:01;;;;;;;13.35;12.05;;;8.50;91.00;;;;;;5994784;23;20210;-84
2022/03/29 05:56:28;;;;;;;16.17;11.63;;;8.50;90.90;;;;;;6001552;23;20245;-83
2022/03/29 05:58:55;;;;;;;14.77;11.70;;;8.60;91.10;;;;;;5990663;23;20184;-85
2022/03/29 06:01:22;;;;;;;13.88;11.55;;;8.60;91.30;;;;;;5994840;23;20333;-87
2022/03/29 06:03:50;;;;;;;13.15;11.85;;;8.60;91.40;;;;;;5998281;23;20202;-85
2022/03/29 06:06:17;;;;;;;13.32;11.98;;;8.70;91.30;;;;;;5994734;23;20285;-84
2022/03/29 06:08:43;;;;;;;15.32;11.98;;;8.70;91.30;;;;;;6001511;23;20184;-85
2022/03/29 06:11:13;;;;;;;12.70;11.38;;;8.80;91.20;;;;;;5998174;23;20743;-85
2022/03/29 06:13:39;;;;;;;13.52;11.40;;;8.80;91.20;;;;;;5999587;23;20653;-84
2022/03/29 06:16:06;;;;;;;16.75;11.90;;;8.90;91.20;;;;;;5988861;23;20965;-83
2022/03/29 06:18:33;;;;;;;14.95;12.57;;;9.00;91.00;;;;;;5998992;23;20267;-84
2022/03/29 06:21:00;;;;;;;11.70;10.50;;;9.00;90.90;;;;;;5989074;23;20218;-83
2022/03/29 06:23:28;;;;;;;14.93;11.25;;;9.10;90.80;;;;;;6000016;23;20679;-84
2022/03/29 06:25:55;;;;;;;15.27;12.10;;;9.10;90.70;;;;;;6003366;23;20266;-83
2022/03/29 06:28:23;;;;;;;14.10;11.35;;;9.10;90.50;;;;;;6001542;23;20201;-84
2022/03/29 06:30:50;;;;;;;14.48;12.98;;;9.20;90.50;;;;;;6002625;23;20225;-83
2022/03/29 06:33:19;;;;;;;16.48;12.60;;;9.20;90.70;;;;;;5993365;23;20227;-84
2022/03/29 06:35:46;;;;;;;13.95;11.65;;;9.40;90.30;;;;;;5997289;23;20182;-84
2022/03/29 06:38:13;;;;;;;15.32;13.15;;;9.50;90.30;;;;;;5999862;23;20240;-84
2022/03/29 06:40:40;;;;;;;14.13;12.18;;;9.60;90.00;;;;;;6003365;23;20199;-83
2022/03/29 06:43:07;;;;;;;14.25;11.57;;;9.70;89.40;;;;;;5999769;23;20197;-84
2022/03/29 06:45:35;;;;;;;13.55;10.98;;;9.80;89.50;;;;;;6014514;23;20990;-84
2022/03/29 06:48:03;;;;;;;15.13;11.85;;;9.80;88.90;;;;;;6023659;23;20208;-83
2022/03/29 06:50:30;;;;;;;14.55;12.18;;;9.80;88.80;;;;;;6024903;23;20215;-82
2022/03/29 06:52:57;;;;;;;14.43;12.10;;;9.80;88.40;;;;;;6024112;23;20187;-83
2022/03/29 06:55:24;;;;;;;14.38;12.40;;;9.80;88.20;;;;;;6025887;23;20248;-83
2022/03/29 06:57:51;;;;;;;15.30;12.48;;;9.80;88.80;;;;;;6002042;23;20191;-83
2022/03/29 07:00:18;;;;;;;21.85;13.18;;;9.90;88.50;;;;;;5993048;23;20193;-84
2022/03/29 07:02:48;;;;;;;27.77;12.45;;;10.10;87.30;;;;;;5998196;23;20209;-84
2022/03/29 07:05:15;;;;;;;18.25;12.52;;;10.20;86.70;;;;;;6004338;23;20255;-84
2022/03/29 07:07:42;;;;;;;18.83;12.55;;;10.40;86.70;;;;;;6002844;23;20186;-83
2022/03/29 07:12:55;;;;;;;13.60;12.18;;;10.60;85.60;;;;;;5984871;23;20191;-85
2022/03/29 07:15:23;;;;;;;16.35;12.75;;;10.80;85.70;;;;;;5993436;23;20546;-85
2022/03/29 07:17:51;;;;;;;16.45;12.15;;;10.90;84.80;;;;;;6006761;23;20676;-85
2022/03/29 07:20:20;;;;;;;13.93;12.20;;;10.90;84.60;;;;;;6004698;23;20538;-85
2022/03/29 07:22:47;;;;;;;16.40;12.23;;;10.90;85.20;;;;;;5997008;23;20233;-85
2022/03/29 07:25:16;;;;;;;21.45;13.40;;;11.00;85.60;;;;;;6002335;23;20281;-86
2022/03/29 07:27:43;;;;;;;15.27;11.93;;;11.00;85.10;;;;;;6003507;23;20190;-86
2022/03/29 07:30:11;;;;;;;15.80;13.05;;;11.10;85.50;;;;;;6004867;23;20192;-85
2022/03/29 07:32:46;;;;;;;14.43;12.93;;;11.20;85.40;;;;;;6002637;23;20221;-84
2022/03/29 07:35:17;;;;;;;14.05;12.60;;;11.30;84.80;;;;;;5987318;23;20190;-85
2022/03/29 07:37:44;;;;;;;20.05;13.35;;;11.40;84.80;;;;;;5931321;23;20822;-85
2022/03/29 07:40:13;;;;;;;15.80;14.23;;;11.50;84.10;;;;;;5998802;23;20204;-85
2022/03/29 07:42:40;;;;;;;19.13;12.82;;;11.60;83.40;;;;;;5998535;23;20206;-85
2022/03/29 07:45:10;;;;;;;17.20;13.60;;;11.70;83.80;;;;;;5995792;23;20541;-85
2022/03/29 07:47:37;;;;;;;15.80;12.90;;;11.90;83.40;;;;;;6003770;23;20257;-85
2022/03/29 07:50:07;;;;;;;15.60;12.82;;;12.20;82.90;;;;;;6006891;23;20265;-85
2022/03/29 07:52:36;;;;;;;14.85;13.35;;;12.50;82.10;;;;;;6013033;23;20222;-84
2022/03/29 07:55:04;;;;;;;17.27;13.50;;;12.80;80.50;;;;;;6017842;23;20224;-85
2022/03/29 07:57:31;;;;;;;15.23;12.10;;;13.00;79.60;;;;;;5992967;23;20187;-85
2022/03/29 07:59:58;;;;;;;15.93;12.75;;;13.30;77.90;;;;;;6006197;23;20484;-85
2022/03/29 08:02:25;;;;;;;18.50;13.70;;;13.60;76.60;;;;;;6005438;23;20283;-85
2022/03/29 08:04:52;;;;;;;15.43;13.63;;;13.90;75.60;;;;;;6005433;23;20445;-85
2022/03/29 08:07:19;;;;;;;17.13;13.70;;;14.30;74.80;;;;;;5997424;23;20915;-85
2022/03/29 08:09:47;;;;;;;17.37;14.37;;;14.60;73.70;;;;;;6004198;23;20510;-84
2022/03/29 08:12:14;;;;;;;19.20;15.50;;;14.90;73.30;;;;;;5999876;23;20530;-85
2022/03/29 08:14:41;;;;;;;20.07;14.80;;;15.20;71.60;;;;;;6001291;23;20986;-86
2022/03/29 08:17:09;;;;;;;16.13;14.53;;;15.40;71.10;;;;;;5999059;23;20462;-85
2022/03/29 08:19:36;;;;;;;18.10;15.17;;;15.60;70.50;;;;;;5998219;23;20907;-85
2022/03/29 08:22:03;;;;;;;16.20;14.57;;;15.70;69.60;;;;;;5988052;23;20564;-85
2022/03/29 08:24:30;;;;;;;14.33;12.83;;;15.90;69.30;;;;;;6002228;23;20441;-85
2022/03/29 08:26:58;;;;;;;15.50;13.23;;;16.10;67.70;;;;;;6007676;23;20454;-83
2022/03/29 08:29:25;;;;;;;18.23;13.37;;;16.30;67.30;;;;;;6003308;23;20453;-85
2022/03/29 08:31:53;;;;;;;19.47;13.60;;;16.50;67.00;;;;;;6001977;23;20583;-85
2022/03/29 08:34:20;;;;;;;16.23;14.20;;;16.70;64.30;;;;;;6004674;23;20453;-85
2022/03/29 08:36:49;;;;;;;16.30;14.60;;;16.90;63.70;;;;;;5998951;23;20441;-85
2022/03/29 08:39:16;;;;;;;16.73;14.20;;;17.20;63.30;;;;;;6002193;23;20445;-85
2022/03/29 08:41:47;;;;;;;17.37;14.90;;;17.60;62.40;;;;;;6003231;23;20469;-85
2022/03/29 08:44:16;;;;;;;15.77;14.07;;;17.80;62.30;;;;;;6002212;23;20453;-85
2022/03/29 08:46:46;;;;;;;15.20;13.23;;;17.90;59.80;;;;;;6000207;23;20955;-85
2022/03/29 08:49:14;;;;;;;15.10;13.43;;;17.60;58.20;;;;;;6001953;23;20445;-85
2022/03/29 08:51:42;;;;;;;14.80;13.20;;;17.50;59.00;;;;;;5983044;23;20807;-85
2022/03/29 08:54:09;;;;;;;17.47;12.50;;;17.50;58.50;;;;;;6003895;23;20488;-85
2022/03/29 08:56:36;;;;;;;16.40;13.37;;;17.70;58.20;;;;;;6002315;23;20456;-85
2022/03/29 08:59:03;;;;;;;14.57;13.10;;;17.80;58.20;;;;;;5993778;23;20441;-84
2022/03/29 09:01:32;;;;;;;15.77;12.90;;;17.90;57.10;;;;;;6002080;23;20473;-85
2022/03/29 09:04:07;;;;;;;16.30;13.70;;;18.00;57.30;;;;;;5997240;23;20445;-85
2022/03/29 09:06:54;;;;;;;13.73;12.40;;;17.80;56.80;;;;;;5993226;23;20445;-85
2022/03/29 09:09:22;;;;;;;17.50;12.47;;;18.00;57.40;;;;;;5994422;23;21006;-85
2022/03/29 09:11:50;;;;;;;16.87;13.50;;;18.10;57.10;;;;;;5997047;23;20476;-87
2022/03/29 09:14:19;;;;;;;14.40;12.90;;;18.00;56.40;;;;;;6004531;23;20573;-85
2022/03/29 09:16:47;;;;;;;15.50;12.70;;;17.90;56.90;;;;;;5991901;23;20975;-85
2022/03/29 09:19:14;;;;;;;15.03;12.53;;;17.70;56.60;;;;;;6001430;23;20448;-86
2022/03/29 09:21:43;;;;;;;18.20;13.13;;;17.70;56.40;;;;;;6002925;23;20465;-86
2022/03/29 09:24:12;;;;;;;14.60;12.97;;;17.80;55.80;;;;;;5987815;23;20465;-86
2022/03/29 09:26:42;;;;;;;14.10;12.30;;;18.00;55.80;;;;;;6000299;23;20449;-86
2022/03/29 09:29:14;;;;;;;17.03;14.07;;;18.60;55.70;;;;;;5997033;23;20969;-86
2022/03/29 09:31:41;;;;;;;16.23;12.83;;;19.10;54.70;;;;;;5983339;23;20469;-85
2022/03/29 09:34:14;;;;;;;15.27;13.50;;;19.40;54.20;;;;;;6001933;23;20455;-85
2022/03/29 09:36:44;;;;;;;14.80;13.30;;;19.70;54.10;;;;;;6001531;23;20437;-86
2022/03/29 09:39:30;;;;;;;14.60;12.67;;;19.80;53.70;;;;;;6003844;23;20441;-86
2022/03/29 09:41:59;;;;;;;14.60;12.47;;;19.80;53.20;;;;;;5983938;23;20501;-83
2022/03/29 09:44:36;;;;;;;13.97;12.67;;;20.00;52.60;;;;;;5990174;23;20789;-85
2022/03/29 09:47:07;;;;;;;14.23;12.73;;;19.90;52.50;;;;;;5991017;23;20512;-85
2022/03/29 09:52:29;;;;;;;14.70;13.30;;;20.10;52.30;;;;;;6095126;23;20606;-84
2022/03/29 09:55:09;;;;;;;14.77;13.27;;;19.90;51.90;;;;;;6073354;23;20521;-85
2022/03/29 09:57:38;;;;;;;15.70;14.10;;;19.80;51.80;;;;;;6057554;23;20434;-87
2022/03/29 10:00:07;;;;;;;14.43;13.00;;;19.90;52.10;;;;;;6060668;23;20442;-84
2022/03/29 10:02:36;;;;;;;13.73;12.43;;;19.80;52.00;;;;;;6068516;23;20526;-84
2022/03/29 10:05:04;;;;;;;14.50;12.83;;;19.90;52.10;;;;;;6067375;23;20521;-85
2022/03/29 10:07:44;;;;;;;16.50;14.47;;;19.90;51.90;;;;;;6077654;23;20447;-84
2022/03/29 10:10:12;;;;;;;14.90;13.40;;;20.10;52.00;;;;;;6061372;23;20430;-84
2022/03/29 10:12:40;;;;;;;16.50;13.43;;;20.40;51.80;;;;;;6067066;23;20434;-84
2022/03/29 10:15:08;;;;;;;16.00;14.03;;;20.90;51.00;;;;;;6042996;23;20434;-84
2022/03/29 10:17:35;;;;;;;15.03;13.53;;;21.30;50.10;;;;;;6061324;23;20468;-85
2022/03/29 10:20:02;;;;;;;15.53;13.80;;;21.50;50.10;;;;;;6053483;23;20443;-84
2022/03/29 10:22:30;;;;;;;16.63;14.03;;;21.70;49.90;;;;;;6050244;23;20439;-84
2022/03/29 10:24:58;;;;;;;15.70;13.37;;;21.80;49.60;;;;;;6068044;23;20445;-84
2022/03/29 10:27:25;;;;;;;14.03;12.63;;;21.90;49.10;;;;;;6068359;23;20440;-84
2022/03/29 10:29:52;;;;;;;15.43;13.83;;;22.40;49.00;;;;;;6059611;23;20442;-82
2022/03/29 10:32:31;;;;;;;17.23;15.53;;;23.00;48.50;;;;;;6041263;23;20471;-84
2022/03/29 10:35:09;;;;;;;15.27;13.77;;;23.10;47.20;;;;;;6061949;23;20461;-84
2022/03/29 10:37:53;;;;;;;14.30;12.90;;;23.30;47.00;;;;;;6065852;23;20463;-84
2022/03/29 10:40:39;;;;;;;14.03;12.63;;;23.30;46.20;;;;;;6066693;23;20470;-84
2022/03/29 10:43:26;;;;;;;14.47;13.07;;;23.20;45.80;;;;;;6050749;23;20509;-84
2022/03/29 10:45:53;;;;;;;16.10;13.97;;;22.80;45.90;;;;;;6052326;23;20439;-84
2022/03/29 10:48:20;;;;;;;15.03;13.20;;;22.80;45.50;;;;;;6067600;23;20442;-83
2022/03/29 10:50:57;;;;;;;14.90;12.80;;;22.50;46.00;;;;;;6080916;23;20456;-83
2022/03/29 10:53:27;;;;;;;15.37;13.77;;;22.40;46.10;;;;;;6085092;23;20932;-83
2022/03/29 10:56:19;;;;;;;15.53;13.80;;;22.40;45.60;;;;;;6066629;23;20434;-84
2022/03/29 10:59:11;;;;;;;15.63;14.13;;;22.50;45.30;;;;;;6095484;23;20430;-84
2022/03/29 11:01:42;;;;;;;16.10;14.47;;;22.40;44.70;;;;;;6046613;23;20470;-84
2022/03/29 11:04:16;;;;;;;15.10;13.60;;;22.40;44.60;;;;;;6036493;23;20529;-85
2022/03/29 11:07:16;;;;;;;15.17;13.67;;;22.40;44.70;;;;;;6072593;23;20530;-84
2022/03/29 11:09:47;;;;;;;16.37;14.63;;;22.50;44.40;;;;;;6047669;23;20454;-84
2022/03/29 11:12:43;;;;;;;15.67;14.27;;;22.50;44.40;;;;;;6065627;23;20474;-84
2022/03/29 11:15:40;;;;;;;16.23;14.30;;;22.60;43.50;;;;;;6046755;23;20438;-83
2022/03/29 11:18:49;;;;;;;16.37;14.63;;;22.90;44.40;;;;;;5984930;23;20501;-84
2022/03/29 11:21:30;;;;;;;16.60;15.00;;;23.00;44.40;;;;;;6041011;23;21042;-84
2022/03/29 11:23:59;;;;;;;15.60;14.10;;;23.20;44.20;;;;;;6070311;23;20442;-84
2022/03/29 11:26:26;;;;;;;17.63;15.80;;;23.20;43.60;;;;;;6057540;23;20489;-84
2022/03/29 11:28:56;;;;;;;17.57;15.80;;;23.30;44.40;;;;;;6060618;23;20436;-86
2022/03/29 11:31:24;;;;;;;19.87;15.43;;;23.40;44.60;;;;;;6051394;23;20565;-85
2022/03/29 11:33:52;;;;;;;18.43;16.17;;;23.70;44.30;;;;;;6057882;23;20440;-85
2022/03/29 11:36:20;;;;;;;17.47;15.67;;;24.00;43.60;;;;;;6055004;23;20482;-85
2022/03/29 11:38:47;;;;;;;17.43;14.90;;;24.10;43.60;;;;;;6059108;23;20447;-85
2022/03/29 11:41:22;;;;;;;18.27;15.40;;;24.30;43.50;;;;;;6037587;23;20807;-86
2022/03/29 11:43:53;;;;;;;17.63;15.30;;;24.30;43.60;;;;;;6052199;23;20853;-87
2022/03/29 11:46:21;;;;;;;18.50;16.53;;;24.50;43.50;;;;;;6055122;23;20444;-86
2022/03/29 11:48:50;;;;;;;16.93;15.33;;;24.60;43.40;;;;;;6047915;23;20444;-86
2022/03/29 11:51:18;;;;;;;17.10;15.50;;;24.70;43.00;;;;;;6037752;23;20487;-86
2022/03/29 11:53:45;;;;;;;15.67;13.90;;;24.60;42.30;;;;;;6045395;23;20443;-85
2022/03/29 11:56:15;;;;;;;18.63;16.07;;;24.70;42.50;;;;;;6035854;23;20452;-85
2022/03/29 11:58:43;;;;;;;17.07;15.47;;;24.60;42.00;;;;;;6034332;23;20495;-85
2022/03/29 12:01:13;;;;;;;17.70;16.00;;;24.70;42.30;;;;;;6055356;23;20885;-86
2022/03/29 12:03:43;;;;;;;17.90;16.30;;;24.70;42.00;;;;;;6052311;23;20466;-90
2022/03/29 12:06:15;;;;;;;16.80;15.10;;;24.50;41.80;;;;;;6055720;23;20462;-84
2022/03/29 12:08:51;;;;;;;16.90;15.30;;;24.40;42.00;;;;;;6036042;23;20486;-85
2022/03/29 12:11:19;;;;;;;17.57;15.70;;;24.30;42.30;;;;;;6046165;23;20550;-84
2022/03/29 12:13:47;;;;;;;15.90;14.30;;;24.30;42.40;;;;;;6064328;23;20467;-83
2022/03/29 12:16:19;;;;;;;15.70;14.20;;;24.30;42.20;;;;;;6043521;23;20472;-82
2022/03/29 12:18:50;;;;;;;16.43;14.73;;;24.30;42.30;;;;;;6061808;23;20838;-85
2022/03/29 12:21:18;;;;;;;16.30;14.70;;;24.40;42.10;;;;;;6045307;23;20459;-83
2022/03/29 12:23:46;;;;;;;17.47;15.13;;;24.40;42.30;;;;;;6057312;23;20443;-82
2022/03/29 12:26:16;;;;;;;17.97;16.17;;;24.40;41.70;;;;;;6057979;23;20964;-84
2022/03/29 12:28:45;;;;;;;17.63;15.87;;;24.30;41.40;;;;;;6053910;23;20536;-81
2022/03/29 12:31:13;;;;;;;14.67;13.20;;;23.80;41.60;;;;;;6050343;23;20554;-87
2022/03/29 12:33:41;;;;;;;17.77;15.90;;;23.50;43.10;;;;;;6054973;23;20490;-85
2022/03/29 12:36:11;;;;;;;17.00;15.20;;;23.40;42.80;;;;;;6041094;23;20512;-86
2022/03/29 12:38:47;;;;;;;16.53;14.33;;;23.30;43.00;;;;;;6055519;23;20439;-82
2022/03/29 12:41:16;;;;;;;16.10;14.50;;;23.40;43.10;;;;;;6055567;23;20467;-82
2022/03/29 12:43:53;;;;;;;16.77;14.97;;;23.50;42.80;;;;;;6069318;23;20446;-83
2022/03/29 12:46:22;;;;;;;17.07;15.37;;;23.50;42.70;;;;;;6046508;23;21413;-83
2022/03/29 12:48:49;;;;;;;16.47;14.87;;;23.60;42.70;;;;;;6079003;23;20436;-82
2022/03/29 12:51:18;;;;;;;19.70;15.40;;;23.60;42.60;;;;;;6050359;23;20464;-82